Time;durP1;ratioP1;P1;durP2;ratioP2;P2;SDS_P1;SDS_P2;PMS_P1;PMS_P2;Temp;Humidity;BMP_temperature;BMP_pressure;BME280_temperature;BME280_humidity;BME280_pressure;Samples;Min_cycle;Max_cycle;Signal;HPM_P1;HPM_P2
2024/01/28 00:02:23;;;;;;;41.15;30.05;;;4.30;98.80;;;;;;4985202;28;20066;-85
2024/01/28 00:04:49;;;;;;;39.60;30.20;;;4.30;98.80;;;;;;4987943;28;20481;-85
2024/01/28 00:07:14;;;;;;;55.03;38.55;;;4.40;98.80;;;;;;5007615;28;20044;-85
2024/01/28 00:09:42;;;;;;;38.90;31.05;;;4.40;98.80;;;;;;5007387;28;20045;-85
2024/01/28 00:12:07;;;;;;;35.25;27.88;;;4.40;98.70;;;;;;4983696;28;20038;-84
2024/01/28 00:14:33;;;;;;;33.63;26.38;;;4.50;98.60;;;;;;5013503;28;20038;-84
2024/01/28 00:16:59;;;;;;;36.97;28.38;;;4.40;98.50;;;;;;5006574;28;20136;-85
2024/01/28 00:19:25;;;;;;;34.42;27.05;;;4.40;98.60;;;;;;5004974;28;20034;-84
2024/01/28 00:21:51;;;;;;;40.25;31.10;;;4.40;98.70;;;;;;5014242;28;20399;-85
2024/01/28 00:24:20;;;;;;;44.47;33.85;;;4.40;98.70;;;;;;5014217;28;20044;-84
2024/01/28 00:26:46;;;;;;;36.70;29.75;;;4.40;98.80;;;;;;5020509;28;20018;-85
2024/01/28 00:29:12;;;;;;;38.22;28.52;;;4.40;98.70;;;;;;5006612;28;20064;-84
2024/01/28 00:31:37;;;;;;;43.97;33.10;;;4.40;98.60;;;;;;4982787;28;20034;-84
2024/01/28 00:34:03;;;;;;;39.08;31.02;;;4.40;98.80;;;;;;4997152;28;20480;-84
2024/01/28 00:36:29;;;;;;;40.30;32.33;;;4.30;98.70;;;;;;4989886;28;20084;-85
2024/01/28 00:38:55;;;;;;;40.03;29.33;;;4.40;98.80;;;;;;5006455;28;20038;-85
2024/01/28 00:41:22;;;;;;;34.10;25.98;;;4.40;98.80;;;;;;5013383;28;20061;-85
2024/01/28 00:43:49;;;;;;;37.20;30.30;;;4.30;98.70;;;;;;5016904;28;20030;-85
2024/01/28 00:46:14;;;;;;;38.80;29.90;;;4.30;98.70;;;;;;4994710;28;20088;-85
2024/01/28 00:48:40;;;;;;;40.85;31.58;;;4.30;98.80;;;;;;5005520;28;20049;-84
2024/01/28 00:51:06;;;;;;;41.80;31.80;;;4.30;98.90;;;;;;5003448;28;20038;-85
2024/01/28 00:53:31;;;;;;;44.80;34.33;;;4.30;98.90;;;;;;4994983;28;20089;-85
2024/01/28 00:55:58;;;;;;;39.20;31.45;;;4.40;98.60;;;;;;5007226;28;20042;-84
2024/01/28 00:58:23;;;;;;;38.97;30.50;;;4.40;98.70;;;;;;4996961;28;20048;-83
2024/01/28 01:00:49;;;;;;;40.30;32.40;;;4.30;98.70;;;;;;4983930;28;20033;-84
2024/01/28 01:03:15;;;;;;;31.38;24.73;;;4.30;98.70;;;;;;4998761;28;20046;-84
2024/01/28 01:05:41;;;;;;;35.55;28.05;;;4.30;98.60;;;;;;4995684;28;20042;-84
2024/01/28 01:08:10;;;;;;;39.25;30.77;;;4.30;98.70;;;;;;4980251;28;20062;-84
2024/01/28 01:10:36;;;;;;;32.58;26.27;;;4.30;98.70;;;;;;4989900;28;20558;-84
2024/01/28 01:13:02;;;;;;;36.35;29.55;;;4.30;98.60;;;;;;4982747;28;20045;-84
2024/01/28 01:15:29;;;;;;;33.15;27.95;;;4.30;98.70;;;;;;4998826;28;20042;-84
2024/01/28 01:17:56;;;;;;;34.05;28.02;;;4.30;98.60;;;;;;5010076;28;20092;-84
2024/01/28 01:20:22;;;;;;;39.13;31.27;;;4.30;98.60;;;;;;4984256;28;20093;-85
2024/01/28 01:22:48;;;;;;;36.05;29.80;;;4.30;98.60;;;;;;4984686;28;20479;-84
2024/01/28 01:25:14;;;;;;;33.58;28.27;;;4.30;98.50;;;;;;4996855;28;20038;-84
2024/01/28 01:27:40;;;;;;;36.03;29.73;;;4.30;98.60;;;;;;5006309;28;20408;-84
2024/01/28 01:30:10;;;;;;;42.85;33.60;;;4.30;98.50;;;;;;4999372;28;20126;-84
2024/01/28 01:32:37;;;;;;;38.15;30.35;;;4.30;98.50;;;;;;4993328;28;20034;-84
2024/01/28 01:35:03;;;;;;;35.90;29.15;;;4.30;98.60;;;;;;5003430;28;20440;-84
2024/01/28 01:37:28;;;;;;;40.03;31.05;;;4.40;98.70;;;;;;4983535;28;20038;-84
2024/01/28 01:39:54;;;;;;;38.00;30.15;;;4.40;98.60;;;;;;4989607;28;20708;-84
2024/01/28 01:42:20;;;;;;;37.42;30.90;;;4.40;98.60;;;;;;4996718;28;20042;-84
2024/01/28 01:44:46;;;;;;;38.40;31.45;;;4.40;98.60;;;;;;5006586;28;20042;-84
2024/01/28 01:47:12;;;;;;;34.13;29.13;;;4.40;98.50;;;;;;5002132;28;20512;-84
2024/01/28 01:49:38;;;;;;;36.58;30.30;;;4.50;98.60;;;;;;4984934;28;20054;-84
2024/01/28 01:52:06;;;;;;;39.50;32.63;;;4.40;98.50;;;;;;4994071;28;20073;-84
2024/01/28 01:54:32;;;;;;;35.00;29.35;;;4.50;98.40;;;;;;4976565;28;20496;-84
2024/01/28 01:56:58;;;;;;;34.05;29.00;;;4.40;98.40;;;;;;5000653;28;20051;-84
2024/01/28 01:59:24;;;;;;;34.55;29.13;;;4.40;98.40;;;;;;5002540;28;20057;-84
2024/01/28 02:01:54;;;;;;;37.90;31.20;;;4.40;98.30;;;;;;5008686;28;20417;-84
2024/01/28 02:04:21;;;;;;;34.45;28.77;;;4.40;98.20;;;;;;4979309;28;20050;-84
2024/01/28 02:06:49;;;;;;;33.38;28.58;;;4.40;98.20;;;;;;4975889;28;20038;-85
2024/01/28 02:09:14;;;;;;;35.13;28.77;;;4.40;98.20;;;;;;4976402;28;20030;-85
2024/01/28 02:11:41;;;;;;;31.90;27.13;;;4.40;98.30;;;;;;5002633;28;20503;-85
2024/01/28 02:14:07;;;;;;;33.30;28.85;;;4.40;98.20;;;;;;4978223;28;20043;-85
2024/01/28 02:16:33;;;;;;;34.47;28.00;;;4.40;98.20;;;;;;4976518;28;20045;-85
2024/01/28 02:18:58;;;;;;;31.70;28.23;;;4.50;98.20;;;;;;4993899;28;20176;-85
2024/01/28 02:21:24;;;;;;;33.15;28.45;;;4.50;98.10;;;;;;5003485;28;20049;-85
2024/01/28 02:23:50;;;;;;;32.42;28.50;;;4.50;98.10;;;;;;4985633;28;20117;-85
2024/01/28 02:26:15;;;;;;;33.88;27.52;;;4.50;98.00;;;;;;5001509;28;20041;-85
2024/01/28 02:28:41;;;;;;;33.35;27.80;;;4.50;98.00;;;;;;4999396;28;20104;-86
2024/01/28 02:31:07;;;;;;;33.22;28.60;;;4.50;98.00;;;;;;4967300;28;20440;-86
2024/01/28 02:33:32;;;;;;;33.72;28.95;;;4.50;98.00;;;;;;4976870;28;20074;-86
2024/01/28 02:35:58;;;;;;;32.55;28.15;;;4.50;98.00;;;;;;4985298;28;20049;-85
2024/01/28 02:38:24;;;;;;;32.13;28.48;;;4.50;97.80;;;;;;4993602;28;20041;-84
2024/01/28 02:40:52;;;;;;;33.75;28.80;;;4.50;97.90;;;;;;5006126;28;20038;-84
2024/01/28 02:43:19;;;;;;;30.17;25.77;;;4.50;97.90;;;;;;4975813;28;20034;-84
2024/01/28 02:45:44;;;;;;;30.63;26.48;;;4.50;97.90;;;;;;4993542;28;20384;-84
2024/01/28 02:48:11;;;;;;;26.23;22.95;;;4.50;97.90;;;;;;4990670;28;20046;-84
2024/01/28 02:50:36;;;;;;;30.42;27.13;;;4.50;97.70;;;;;;5002303;28;20044;-84
2024/01/28 02:53:02;;;;;;;27.90;24.85;;;4.50;97.80;;;;;;5002795;28;20034;-84
2024/01/28 02:55:28;;;;;;;31.13;25.92;;;4.50;97.80;;;;;;4995817;28;20035;-85
2024/01/28 02:57:53;;;;;;;31.90;26.65;;;4.50;97.80;;;;;;4992898;28;20116;-84
2024/01/28 03:00:19;;;;;;;27.98;24.92;;;4.50;97.80;;;;;;5002259;28;20046;-83
2024/01/28 03:02:45;;;;;;;29.77;25.95;;;4.50;97.60;;;;;;4984838;28;20041;-83
2024/01/28 03:05:11;;;;;;;29.30;26.00;;;4.50;97.50;;;;;;5001744;28;20554;-83
2024/01/28 03:07:37;;;;;;;27.52;24.63;;;4.40;97.50;;;;;;4987104;28;20064;-83
2024/01/28 03:10:04;;;;;;;28.05;25.10;;;4.40;97.50;;;;;;4999094;28;20485;-84
2024/01/28 03:12:29;;;;;;;31.23;27.85;;;4.40;97.50;;;;;;4973939;28;20057;-84
2024/01/28 03:14:55;;;;;;;29.38;25.50;;;4.40;97.50;;;;;;4988974;28;20030;-84
2024/01/28 03:17:21;;;;;;;30.58;25.65;;;4.30;97.50;;;;;;5000044;28;21541;-85
2024/01/28 03:19:46;;;;;;;29.45;25.50;;;4.30;97.50;;;;;;5003860;28;20049;-84
2024/01/28 03:22:12;;;;;;;26.42;22.80;;;4.30;97.50;;;;;;5000821;28;20113;-85
2024/01/28 03:24:40;;;;;;;28.65;25.00;;;4.30;97.40;;;;;;4992542;28;20437;-85
2024/01/28 03:27:06;;;;;;;27.80;24.80;;;4.30;97.40;;;;;;4982997;28;20042;-85
2024/01/28 03:29:31;;;;;;;27.52;23.85;;;4.30;97.50;;;;;;4984157;28;20041;-84
2024/01/28 03:31:57;;;;;;;31.70;26.65;;;4.30;97.40;;;;;;5003729;28;20407;-83
2024/01/28 03:34:23;;;;;;;30.52;26.38;;;4.30;97.40;;;;;;4997927;28;20568;-84
2024/01/28 03:36:49;;;;;;;29.52;25.80;;;4.20;97.30;;;;;;5009412;28;20516;-84
2024/01/28 03:39:14;;;;;;;28.92;25.83;;;4.20;97.30;;;;;;5003001;28;20046;-84
2024/01/28 03:41:40;;;;;;;27.00;24.10;;;4.20;97.20;;;;;;4980967;28;20481;-84
2024/01/28 03:44:06;;;;;;;27.38;24.08;;;4.20;97.20;;;;;;4974744;28;20069;-84
2024/01/28 03:46:34;;;;;;;29.70;25.35;;;4.20;97.20;;;;;;4975105;28;20062;-84
2024/01/28 03:49:00;;;;;;;28.17;25.17;;;4.10;97.30;;;;;;5000239;28;20038;-84
2024/01/28 03:51:26;;;;;;;31.20;26.02;;;4.10;97.30;;;;;;4999912;28;20421;-84
2024/01/28 03:53:51;;;;;;;27.55;24.45;;;4.20;97.40;;;;;;4992411;28;20085;-84
2024/01/28 03:56:17;;;;;;;29.13;25.05;;;4.20;97.20;;;;;;4993622;28;20105;-85
2024/01/28 03:58:43;;;;;;;30.85;25.58;;;4.20;97.20;;;;;;4974384;28;20137;-84
2024/01/28 04:01:09;;;;;;;29.15;25.88;;;4.20;97.10;;;;;;5001148;28;20472;-85
2024/01/28 04:03:36;;;;;;;30.42;25.13;;;4.20;97.00;;;;;;5006175;28;20037;-85
2024/01/28 04:06:02;;;;;;;30.33;26.20;;;4.10;97.00;;;;;;4993978;28;20041;-85
2024/01/28 04:08:28;;;;;;;27.20;23.15;;;4.10;97.00;;;;;;4986785;28;20037;-84
2024/01/28 04:10:53;;;;;;;33.45;29.27;;;4.00;97.10;;;;;;5005313;28;20534;-84
2024/01/28 04:13:19;;;;;;;28.98;23.45;;;4.00;97.10;;;;;;4996140;28;20738;-85
2024/01/28 04:15:45;;;;;;;26.83;23.35;;;4.00;97.20;;;;;;5000261;28;20027;-84
2024/01/28 04:18:10;;;;;;;29.55;25.23;;;4.00;97.30;;;;;;4997465;28;20035;-84
2024/01/28 04:20:36;;;;;;;30.60;25.60;;;4.00;97.30;;;;;;4989165;28;20042;-85
2024/01/28 04:23:02;;;;;;;29.30;24.75;;;4.00;97.40;;;;;;4993718;28;20023;-84
2024/01/28 04:25:29;;;;;;;29.85;25.23;;;4.00;97.50;;;;;;4957060;28;20165;-85
2024/01/28 04:27:54;;;;;;;30.02;25.65;;;4.10;97.50;;;;;;4975052;28;20102;-85
2024/01/28 04:30:20;;;;;;;29.15;25.33;;;4.10;97.30;;;;;;4984763;28;20044;-85
2024/01/28 04:32:46;;;;;;;30.80;25.27;;;4.10;97.30;;;;;;4982253;28;20129;-84
2024/01/28 04:35:12;;;;;;;29.02;24.23;;;4.10;97.30;;;;;;5002389;28;20075;-85
2024/01/28 04:37:39;;;;;;;30.63;24.88;;;4.10;97.30;;;;;;4984913;28;20124;-85
2024/01/28 04:40:06;;;;;;;29.48;24.88;;;4.10;97.40;;;;;;4984723;28;21601;-85
2024/01/28 04:42:32;;;;;;;28.20;24.17;;;4.20;97.40;;;;;;4988762;28;20033;-85
2024/01/28 04:44:58;;;;;;;29.98;25.85;;;4.20;97.50;;;;;;4977608;28;20062;-84
2024/01/28 04:47:24;;;;;;;29.17;24.60;;;4.20;97.20;;;;;;5005465;28;20100;-85
2024/01/28 04:49:50;;;;;;;27.70;23.42;;;4.30;97.20;;;;;;4988769;28;20471;-85
2024/01/28 04:52:16;;;;;;;28.52;24.23;;;4.30;97.20;;;;;;5012025;28;20046;-85
2024/01/28 04:54:42;;;;;;;26.73;23.65;;;4.30;97.20;;;;;;5003258;28;20492;-85
2024/01/28 04:57:08;;;;;;;27.17;24.25;;;4.30;97.20;;;;;;4971148;28;20069;-85
2024/01/28 04:59:34;;;;;;;27.52;23.73;;;4.30;97.30;;;;;;4977666;28;20392;-84
2024/01/28 05:02:00;;;;;;;27.00;23.55;;;4.30;97.30;;;;;;4979528;28;20125;-84
2024/01/28 05:04:26;;;;;;;25.23;22.52;;;4.30;97.30;;;;;;4981211;28;20060;-84
2024/01/28 05:06:51;;;;;;;27.77;24.23;;;4.20;97.30;;;;;;5001060;28;20030;-84
2024/01/28 05:09:17;;;;;;;26.67;23.05;;;4.20;97.40;;;;;;4977224;28;20038;-84
2024/01/28 05:11:44;;;;;;;27.73;24.48;;;4.20;97.40;;;;;;4995987;28;20033;-85
2024/01/28 05:14:10;;;;;;;27.33;23.52;;;4.20;97.50;;;;;;4997434;28;20464;-85
2024/01/28 05:16:36;;;;;;;26.27;22.85;;;4.30;97.50;;;;;;4977567;28;20049;-85
2024/01/28 05:19:02;;;;;;;25.83;22.35;;;4.30;97.40;;;;;;5007595;28;20038;-85
2024/01/28 05:21:28;;;;;;;25.95;23.10;;;4.30;97.30;;;;;;4992729;28;20038;-86
2024/01/28 05:23:54;;;;;;;25.55;22.73;;;4.30;97.30;;;;;;4993803;28;20040;-85
2024/01/28 05:26:19;;;;;;;27.65;23.52;;;4.30;97.20;;;;;;5006413;28;20153;-85
2024/01/28 05:28:45;;;;;;;26.15;23.00;;;4.40;97.20;;;;;;5008617;28;20612;-85
2024/01/28 05:31:12;;;;;;;26.35;23.52;;;4.40;97.10;;;;;;4989304;28;20487;-85
2024/01/28 05:33:37;;;;;;;25.63;22.65;;;4.40;97.00;;;;;;5002011;28;20030;-85
2024/01/28 05:36:13;;;;;;;25.52;22.58;;;4.40;97.10;;;;;;4985169;28;20469;-84
2024/01/28 05:38:40;;;;;;;24.30;21.70;;;4.50;96.80;;;;;;4986890;28;20089;-84
2024/01/28 05:41:08;;;;;;;26.73;22.15;;;4.50;96.70;;;;;;4988996;28;20395;-84
2024/01/28 05:43:35;;;;;;;23.75;20.98;;;4.40;96.60;;;;;;4997827;28;20038;-84
2024/01/28 05:46:01;;;;;;;27.05;22.65;;;4.40;96.60;;;;;;4989332;28;20049;-84
2024/01/28 05:48:27;;;;;;;24.00;21.48;;;4.40;96.70;;;;;;4995975;28;20074;-84
2024/01/28 05:50:52;;;;;;;22.95;20.00;;;4.40;96.70;;;;;;4998174;28;20080;-84
2024/01/28 05:53:18;;;;;;;23.83;21.25;;;4.30;96.60;;;;;;4985063;28;20042;-84
2024/01/28 05:55:44;;;;;;;25.38;21.90;;;4.30;96.70;;;;;;4977293;28;20034;-84
2024/01/28 05:58:09;;;;;;;25.02;22.48;;;4.20;96.90;;;;;;4994754;28;20058;-85
2024/01/28 06:00:35;;;;;;;24.80;22.20;;;4.30;97.00;;;;;;5007348;28;20026;-86
2024/01/28 06:03:01;;;;;;;28.23;22.65;;;4.30;97.00;;;;;;5000607;28;20088;-85
2024/01/28 06:05:39;;;;;;;26.77;23.02;;;4.30;96.90;;;;;;4988108;28;20029;-86
2024/01/28 06:08:08;;;;;;;24.05;21.45;;;4.30;96.90;;;;;;4975620;28;20047;-86
2024/01/28 06:10:34;;;;;;;23.63;21.08;;;4.30;96.70;;;;;;4980173;28;20038;-84
2024/01/28 06:12:59;;;;;;;22.75;20.27;;;4.30;96.80;;;;;;4993914;28;20274;-84
2024/01/28 06:15:26;;;;;;;23.63;20.60;;;4.20;96.80;;;;;;5003733;28;20038;-85
2024/01/28 06:17:52;;;;;;;22.27;19.88;;;4.20;96.90;;;;;;5012194;28;20093;-85
2024/01/28 06:20:18;;;;;;;22.08;19.52;;;4.20;96.90;;;;;;4985882;28;20030;-85
2024/01/28 06:22:44;;;;;;;24.77;20.23;;;4.10;96.90;;;;;;4994296;28;20057;-85
2024/01/28 06:25:09;;;;;;;22.77;19.75;;;4.00;97.00;;;;;;4970898;28;20469;-87
2024/01/28 06:27:35;;;;;;;22.63;20.10;;;4.00;97.10;;;;;;4994101;28;20448;-88
2024/01/28 06:30:01;;;;;;;23.27;19.70;;;4.10;97.10;;;;;;4976288;28;20038;-87
2024/01/28 06:32:27;;;;;;;18.30;15.95;;;4.10;96.80;;;;;;5004707;28;20445;-87
2024/01/28 06:34:53;;;;;;;19.63;17.45;;;4.00;96.80;;;;;;4978333;28;20117;-87
2024/01/28 06:37:18;;;;;;;21.95;19.42;;;4.00;96.90;;;;;;4995093;28;20042;-87
2024/01/28 06:39:49;;;;;;;20.65;17.73;;;4.00;97.10;;;;;;4976253;28;20492;-87
2024/01/28 06:42:16;;;;;;;20.80;17.92;;;4.00;97.10;;;;;;5005363;28;20403;-87
2024/01/28 06:44:41;;;;;;;21.67;18.65;;;4.00;96.90;;;;;;5013011;28;20046;-87
2024/01/28 06:47:07;;;;;;;20.35;17.98;;;4.00;96.90;;;;;;4990303;28;20515;-87
2024/01/28 06:49:33;;;;;;;23.85;19.05;;;4.00;96.90;;;;;;4968925;28;20026;-89
2024/01/28 06:52:00;;;;;;;18.63;16.45;;;4.10;96.90;;;;;;4993790;28;20065;-88
2024/01/28 06:54:26;;;;;;;21.40;17.38;;;4.10;96.90;;;;;;5001135;28;20046;-88
2024/01/28 06:56:51;;;;;;;21.77;17.80;;;4.10;96.70;;;;;;4993158;28;20065;-89
2024/01/28 06:59:20;;;;;;;20.63;17.55;;;4.10;96.70;;;;;;4993477;28;20105;-89
2024/01/28 07:01:45;;;;;;;20.83;18.05;;;4.10;96.80;;;;;;4989728;28;20038;-88
2024/01/28 07:04:11;;;;;;;19.08;16.42;;;4.10;96.80;;;;;;4976571;28;20045;-84
2024/01/28 07:06:37;;;;;;;20.55;17.65;;;4.10;97.10;;;;;;4975995;28;20023;-84
2024/01/28 07:09:03;;;;;;;20.48;16.77;;;4.10;97.10;;;;;;4993561;28;20050;-84
2024/01/28 07:11:28;;;;;;;17.90;15.50;;;4.20;97.10;;;;;;5011532;28;20534;-84
2024/01/28 07:13:54;;;;;;;16.88;15.00;;;4.20;96.90;;;;;;4999842;28;20049;-84
2024/01/28 07:16:20;;;;;;;18.38;15.98;;;4.20;96.80;;;;;;4994606;28;20042;-84
2024/01/28 07:18:46;;;;;;;18.38;15.70;;;4.20;96.80;;;;;;4993701;28;20122;-83
2024/01/28 07:21:12;;;;;;;19.27;15.57;;;4.30;96.80;;;;;;4993437;28;20038;-83
2024/01/28 07:23:37;;;;;;;19.52;16.13;;;4.20;96.70;;;;;;4992833;28;20499;-83
2024/01/28 07:26:03;;;;;;;18.77;16.70;;;4.20;96.80;;;;;;4993003;28;20038;-84
2024/01/28 07:28:34;;;;;;;19.52;16.90;;;4.20;96.90;;;;;;4989256;23;20513;-81
2024/01/28 07:31:00;;;;;;;21.17;17.38;;;4.20;97.00;;;;;;4944952;28;20046;-81
2024/01/28 07:33:34;;;;;;;19.73;17.02;;;4.30;97.00;;;;;;4965999;28;20038;-81
2024/01/28 07:36:04;;;;;;;20.70;17.25;;;4.30;97.00;;;;;;4957349;28;20042;-81
2024/01/28 07:38:30;;;;;;;19.70;16.38;;;4.40;96.90;;;;;;4962180;28;20060;-81
2024/01/28 07:40:56;;;;;;;21.10;16.73;;;4.40;96.70;;;;;;4985122;28;20443;-85
2024/01/28 07:43:23;;;;;;;21.55;16.08;;;4.30;96.70;;;;;;4974526;28;20133;-84
2024/01/28 07:45:50;;;;;;;22.70;18.05;;;4.30;96.90;;;;;;4959959;28;20568;-86
2024/01/28 07:48:16;;;;;;;20.85;17.35;;;4.30;97.00;;;;;;4959111;28;20125;-85
2024/01/28 07:50:43;;;;;;;19.50;14.57;;;4.40;96.90;;;;;;4960909;28;20043;-82
2024/01/28 07:53:14;;;;;;;17.77;15.07;;;4.40;96.90;;;;;;4959851;28;20046;-82
2024/01/28 07:55:41;;;;;;;17.63;14.23;;;4.50;97.00;;;;;;4965370;28;20195;-81
2024/01/28 07:58:08;;;;;;;17.48;14.88;;;4.50;96.80;;;;;;4975094;28;20093;-80
2024/01/28 08:00:36;;;;;;;28.58;23.83;;;4.50;96.90;;;;;;4960658;28;20481;-80
2024/01/28 08:03:02;;;;;;;20.40;17.75;;;4.50;96.60;;;;;;4970550;28;20039;-80
2024/01/28 08:05:28;;;;;;;18.58;16.10;;;4.40;96.60;;;;;;4959091;28;20035;-80
2024/01/28 08:07:57;;;;;;;20.90;16.98;;;4.50;96.80;;;;;;4977353;28;20043;-83
2024/01/28 08:10:24;;;;;;;20.15;17.05;;;4.50;96.80;;;;;;4981801;28;20049;-84
2024/01/28 08:12:50;;;;;;;20.63;16.45;;;4.50;96.80;;;;;;4963353;28;20039;-80
2024/01/28 08:15:16;;;;;;;18.38;16.38;;;4.50;96.90;;;;;;4966276;28;20074;-86
2024/01/28 08:17:43;;;;;;;18.00;16.05;;;4.60;97.00;;;;;;4978728;28;20070;-85
2024/01/28 08:20:09;;;;;;;18.85;16.63;;;4.60;97.00;;;;;;4982411;28;20493;-79
2024/01/28 08:22:35;;;;;;;19.38;17.23;;;4.60;97.10;;;;;;4977240;28;20540;-85
2024/01/28 08:25:07;;;;;;;22.65;19.08;;;4.70;97.10;;;;;;4979754;28;20034;-84
2024/01/28 08:27:33;;;;;;;18.63;16.63;;;4.80;96.90;;;;;;4991817;28;20061;-84
2024/01/28 08:30:00;;;;;;;18.90;16.73;;;4.80;96.90;;;;;;4985669;28;20504;-85
2024/01/28 08:32:25;;;;;;;24.40;20.60;;;4.70;97.00;;;;;;4988071;28;20045;-85
2024/01/28 08:34:51;;;;;;;21.83;18.45;;;4.70;97.10;;;;;;4976837;28;20034;-84
2024/01/28 08:37:17;;;;;;;22.40;19.17;;;4.80;97.20;;;;;;4983408;28;20050;-84
2024/01/28 08:39:43;;;;;;;25.25;22.13;;;4.80;97.20;;;;;;4991031;28;20049;-84
2024/01/28 08:42:09;;;;;;;26.95;22.40;;;4.90;97.30;;;;;;4976766;28;20035;-84
2024/01/28 08:44:35;;;;;;;24.30;21.13;;;5.00;97.20;;;;;;4966463;28;20508;-84
2024/01/28 08:47:02;;;;;;;27.38;22.02;;;5.20;97.20;;;;;;4989059;28;20050;-84
2024/01/28 08:49:28;;;;;;;26.50;20.83;;;5.30;97.10;;;;;;4966349;28;20034;-84
2024/01/28 08:51:54;;;;;;;24.20;21.23;;;5.40;96.80;;;;;;4993791;28;20041;-84
2024/01/28 08:54:20;;;;;;;24.08;19.95;;;5.60;96.80;;;;;;4961314;28;20117;-84
2024/01/28 08:56:52;;;;;;;25.92;21.67;;;5.70;96.50;;;;;;4987311;28;20122;-78
2024/01/28 08:59:19;;;;;;;27.98;23.25;;;5.80;96.70;;;;;;4962950;28;20026;-78
2024/01/28 09:01:47;;;;;;;21.95;19.58;;;6.00;96.30;;;;;;4986175;28;20073;-78
2024/01/28 09:04:13;;;;;;;23.30;19.45;;;6.10;96.20;;;;;;4986741;28;20386;-77
2024/01/28 09:06:39;;;;;;;25.48;21.58;;;6.30;96.00;;;;;;4978671;28;20062;-78
2024/01/28 09:09:08;;;;;;;24.90;22.25;;;6.40;96.20;;;;;;4950923;28;20073;-79
2024/01/28 09:11:42;;;;;;;26.67;23.77;;;6.60;96.20;;;;;;4980962;28;20046;-78
2024/01/28 09:14:08;;;;;;;24.27;21.63;;;6.80;95.60;;;;;;4959950;28;20039;-78
2024/01/28 09:16:33;;;;;;;28.20;24.52;;;6.90;95.00;;;;;;4978620;28;20093;-79
2024/01/28 09:19:03;;;;;;;26.63;23.73;;;7.00;95.30;;;;;;4967187;28;20038;-78
2024/01/28 09:21:31;;;;;;;27.15;24.05;;;7.20;95.20;;;;;;4976600;28;20045;-78
2024/01/28 09:23:58;;;;;;;27.83;24.85;;;7.20;94.90;;;;;;4976699;28;20034;-78
2024/01/28 09:26:24;;;;;;;28.25;25.30;;;7.40;95.00;;;;;;4958637;28;20042;-78
2024/01/28 09:28:50;;;;;;;28.25;25.13;;;7.50;94.80;;;;;;4976718;28;20074;-78
2024/01/28 09:31:16;;;;;;;27.88;24.92;;;7.60;94.90;;;;;;4991921;28;20050;-79
2024/01/28 09:33:43;;;;;;;28.45;25.20;;;7.80;94.70;;;;;;4994509;28;20380;-78
2024/01/28 09:36:09;;;;;;;29.88;26.67;;;7.90;94.60;;;;;;4980631;28;20046;-78
2024/01/28 09:38:34;;;;;;;29.77;26.58;;;8.10;94.30;;;;;;4981832;28;20043;-82
2024/01/28 09:41:24;;;;;;;29.80;26.80;;;8.20;94.40;;;;;;4989961;28;20053;-82
2024/01/28 09:43:50;;;;;;;32.72;27.48;;;8.40;94.30;;;;;;4989378;28;20038;-82
2024/01/28 09:46:16;;;;;;;32.08;28.58;;;8.60;94.10;;;;;;4975617;28;20039;-81
2024/01/28 09:48:45;;;;;;;28.80;25.90;;;8.80;93.90;;;;;;4976002;28;20039;-82
2024/01/28 09:51:12;;;;;;;28.93;25.77;;;9.00;93.30;;;;;;4975870;28;20038;-82
2024/01/28 09:53:39;;;;;;;30.55;27.40;;;9.20;93.10;;;;;;4976805;28;20067;-82
2024/01/28 09:56:05;;;;;;;31.52;27.75;;;9.30;93.10;;;;;;4978100;28;20084;-82
2024/01/28 09:58:32;;;;;;;27.30;24.10;;;9.50;92.90;;;;;;4997095;28;20034;-82
2024/01/28 10:01:02;;;;;;;29.15;26.15;;;9.60;91.80;;;;;;4992168;28;20038;-78
2024/01/28 10:03:28;;;;;;;;;;;9.60;92.30;;;;;;4976198;28;20053;-78
2024/01/28 10:05:53;;;;;;;27.90;24.95;;;9.80;92.40;;;;;;4976987;28;19956;-78
2024/01/28 10:08:19;;;;;;;29.45;26.33;;;10.00;92.40;;;;;;4976334;28;20078;-78
2024/01/28 10:10:54;;;;;;;30.48;27.35;;;10.20;92.20;;;;;;4983948;28;20112;-78
2024/01/28 10:13:20;;;;;;;29.23;26.23;;;10.40;91.80;;;;;;4978766;28;20033;-79
2024/01/28 10:15:56;;;;;;;28.58;25.27;;;10.60;91.80;;;;;;4991669;28;20046;-78
2024/01/28 10:18:23;;;;;;;28.35;25.08;;;10.80;91.60;;;;;;4983048;28;20039;-78
2024/01/28 10:20:49;;;;;;;28.40;25.30;;;10.90;91.40;;;;;;4986795;28;20129;-78
2024/01/28 10:23:15;;;;;;;29.58;26.48;;;11.00;91.00;;;;;;4976001;28;20031;-78
2024/01/28 10:25:41;;;;;;;27.23;24.27;;;11.20;90.90;;;;;;4990699;28;20088;-78
2024/01/28 10:28:08;;;;;;;26.83;24.13;;;11.30;90.10;;;;;;4977104;28;20405;-79
2024/01/28 10:30:40;;;;;;;27.60;24.75;;;11.30;90.40;;;;;;4961949;28;20042;-79
2024/01/28 10:33:07;;;;;;;29.42;26.02;;;11.30;89.70;;;;;;4993935;28;20034;-78
2024/01/28 10:35:36;;;;;;;32.50;29.30;;;11.30;90.10;;;;;;4971595;28;20121;-78
2024/01/28 10:38:04;;;;;;;27.00;24.20;;;11.40;90.00;;;;;;4976232;28;20089;-78
2024/01/28 10:40:34;;;;;;;25.65;23.05;;;11.50;90.10;;;;;;4978149;28;20554;-78
2024/01/28 10:43:02;;;;;;;18.15;16.38;;;11.70;90.40;;;;;;4981042;28;20030;-79
2024/01/28 10:45:31;;;;;;;26.65;23.98;;;12.00;92.60;;;;;;4979720;28;20110;-79
2024/01/28 10:48:05;;;;;;;24.33;21.93;;;12.30;91.40;;;;;;4972736;28;20485;-79
2024/01/28 10:50:34;;;;;;;23.67;20.30;;;12.60;90.80;;;;;;4973782;28;20043;-79
2024/01/28 10:53:01;;;;;;;18.92;17.00;;;12.70;89.40;;;;;;4977602;28;20508;-84
2024/01/28 10:55:28;;;;;;;23.80;21.35;;;12.90;91.50;;;;;;4963727;28;20516;-84
2024/01/28 10:57:54;;;;;;;26.83;24.10;;;13.20;90.80;;;;;;4975009;28;20049;-83
2024/01/28 11:00:24;;;;;;;25.20;22.65;;;13.30;89.90;;;;;;4973613;28;21615;-83
2024/01/28 11:02:50;;;;;;;;;;;13.40;88.30;;;;;;4972566;28;20042;-83
2024/01/28 11:05:17;;;;;;;23.35;20.92;;;13.50;88.20;;;;;;4987480;28;20368;-83
2024/01/28 11:07:43;;;;;;;26.38;23.20;;;13.60;88.30;;;;;;4979300;28;20034;-84
2024/01/28 11:10:10;;;;;;;23.88;21.27;;;13.70;86.50;;;;;;4975392;28;20154;-83
2024/01/28 11:12:36;;;;;;;24.25;21.65;;;13.80;86.70;;;;;;4978860;28;20126;-83
2024/01/28 11:15:02;;;;;;;23.83;21.33;;;13.90;86.10;;;;;;4985753;28;20119;-83
2024/01/28 11:17:37;;;;;;;22.95;20.48;;;14.10;85.30;;;;;;4969490;28;20031;-83
2024/01/28 11:20:10;;;;;;;24.70;22.05;;;14.30;85.10;;;;;;4986363;28;20035;-83
2024/01/28 11:22:50;;;;;;;23.50;21.10;;;14.30;84.60;;;;;;4993097;28;20508;-83
2024/01/28 11:25:22;;;;;;;22.92;20.67;;;14.50;84.60;;;;;;4990860;28;20037;-83
2024/01/28 11:27:48;;;;;;;24.88;21.73;;;14.60;84.50;;;;;;4974866;28;20039;-83
2024/01/28 11:30:18;;;;;;;24.40;21.77;;;14.80;84.10;;;;;;4964947;28;20042;-83
2024/01/28 11:32:44;;;;;;;22.75;20.30;;;14.90;82.40;;;;;;4988015;28;20118;-83
2024/01/28 11:35:10;;;;;;;25.63;21.17;;;14.90;82.70;;;;;;4979617;28;20520;-83
2024/01/28 11:37:52;;;;;;;23.20;20.80;;;15.00;82.00;;;;;;4973608;28;20126;-83
2024/01/28 11:40:23;;;;;;;27.08;22.00;;;15.10;81.50;;;;;;4969076;28;20496;-84
2024/01/28 11:42:55;;;;;;;26.90;22.92;;;15.30;81.10;;;;;;4955929;28;20031;-83
2024/01/28 11:45:25;;;;;;;25.63;22.27;;;15.50;80.70;;;;;;4980958;28;20076;-83
2024/01/28 11:47:51;;;;;;;25.02;22.42;;;15.70;80.20;;;;;;4973075;28;20064;-84
2024/01/28 11:50:17;;;;;;;28.58;24.27;;;15.80;80.60;;;;;;4989309;28;20050;-84
2024/01/28 11:52:43;;;;;;;27.48;23.88;;;16.10;79.60;;;;;;4994163;28;20038;-84
2024/01/28 11:55:13;;;;;;;22.58;20.25;;;16.50;79.50;;;;;;4964768;28;20404;-84
2024/01/28 11:57:41;;;;;;;23.35;20.85;;;17.40;77.00;;;;;;4980975;28;20051;-79
2024/01/28 12:00:09;;;;;;;24.65;22.02;;;18.50;75.60;;;;;;4988650;28;20049;-79
2024/01/28 12:02:47;;;;;;;24.67;22.10;;;19.80;72.00;;;;;;4962613;28;20485;-79
2024/01/28 12:07:52;;;;;;;21.80;19.63;;;22.10;65.30;;;;;;5020714;23;20058;-79
2024/01/28 12:10:18;;;;;;;22.65;19.65;;;23.00;62.70;;;;;;4967593;28;20130;-80
2024/01/28 12:12:44;;;;;;;22.42;20.13;;;23.70;61.30;;;;;;4993209;28;20122;-77
2024/01/28 12:15:13;;;;;;;22.48;20.17;;;24.40;59.30;;;;;;4991285;28;20551;-78
2024/01/28 12:17:40;;;;;;;21.35;19.15;;;25.10;56.40;;;;;;4991258;28;20101;-78
2024/01/28 12:20:07;;;;;;;21.05;18.85;;;25.50;54.60;;;;;;4987103;28;20034;-77
2024/01/28 12:22:40;;;;;;;19.40;17.40;;;25.70;52.70;;;;;;4986189;28;20047;-78
2024/01/28 12:25:20;;;;;;;20.17;18.08;;;25.90;51.70;;;;;;4967195;28;20052;-77
2024/01/28 12:27:45;;;;;;;20.27;18.27;;;26.10;51.10;;;;;;4983868;28;20047;-77
2024/01/28 12:30:12;;;;;;;20.25;18.25;;;26.20;50.40;;;;;;4984228;28;20081;-77
2024/01/28 12:32:39;;;;;;;19.95;18.00;;;26.30;49.90;;;;;;4995579;28;20125;-79
2024/01/28 12:35:07;;;;;;;31.95;19.48;;;26.40;49.40;;;;;;4983917;28;20026;-78
2024/01/28 12:37:38;;;;;;;23.60;18.63;;;26.40;49.10;;;;;;4984774;28;20053;-78